Ida Theresa — V7RQ9 — position and weather

sailwx.info

Track history (hours):
 
Tides and Currents Weather Stations Pressure Air Temp Water Temp Dewpoint Dewpoint Depression Visibility Wind Speed Wind Dir Waves Ship Positions

Ida Theresa

Last reported at 2014-Nov-23 21:10 UTC. Time now 2014-Nov-26 20:20 UTC.
Position N 57°02' E 019°03'.

Length 121 m; draft 4.8 m.

Type: Ship. MMSI: 538090386.

Date/timePositionNaut miles runAvg speedWind from/ knotsBaromVisibWave heightAir tempDewpointWater temp
2014-Nov-23 21:10N 57°02' E 019°03'2212.7
2014-Nov-23 19:27N 56°49' E 018°31'13612.4
2014-Nov-23 08:30N 55°33' E 015°09'1212.4
2014-Nov-23 07:34N 55°27' E 014°51'1312.6
2014-Nov-23 06:33N 55°20' E 014°33'1312.6
2014-Nov-23 05:34N 55°10' E 014°20'1212.5
2014-Nov-23 04:33N 55°00' E 014°05'6612.1
2014-Nov-22 23:04N 54°35' E 012°19'612.4
2014-Nov-22 22:33N 54°29' E 012°15'1110.7
2014-Nov-22 21:33N 54°24' E 011°59'2811.2
2014-Nov-22 19:04N 54°34' E 011°14'2111.2
2014-Nov-22 17:12N 54°34' E 010°38'812.1
2014-Nov-22 16:33N 54°31' E 010°25'1110.7
2014-Nov-22 15:33N 54°23' E 010°12'3 2.5
2014-Nov-22 14:33N 54°22' E 010°09'6 6.3
2014-Nov-22 13:33N 54°21' E 009°58'8 7.1
2014-Nov-22 12:25N 54°20' E 009°44'7 7.3
2014-Nov-22 11:30N 54°15' E 009°37'8 7.7
2014-Nov-22 10:27N 54°10' E 009°26'5 5.6
2014-Nov-22 09:33N 54°06' E 009°20'7 7.3
2014-Nov-22 08:33N 53°59' E 009°17'3 3.5
2014-Nov-22 07:33N 53°57' E 009°13'2 2.1
2014-Nov-22 06:33N 53°55' E 009°11'2 2.1
2014-Nov-22 05:33N 53°54' E 009°09'2 1.6
2014-Nov-22 04:32N 53°53' E 009°06'0 0.0
2014-Nov-22 03:32N 53°53' E 009°06'0 0.2
2014-Nov-22 02:33N 53°53' E 009°06'1 0.9
2014-Nov-22 01:31N 53°53' E 009°05'0 0.1
2014-Nov-22 00:31N 53°53' E 009°05'0 0.0
2014-Nov-21 23:31N 53°53' E 009°05'0 0.0
2014-Nov-21 22:31N 53°53' E 009°05'0 0.0
2014-Nov-21 21:33N 53°53' E 009°05'8 8.5
2014-Nov-21 20:33N 53°50' E 008°52'1312.5
2014-Nov-21 19:33N 53°58' E 008°35'1312.9
2014-Nov-21 18:33N 53°60' E 008°13'1211.7
2014-Nov-21 17:33N 54°03' E 007°54'1212.3
2014-Nov-21 16:33N 54°09' E 007°35'1111.5
2014-Nov-21 15:33N 54°09' E 007°16'3511.2
2014-Nov-21 12:26N 54°08' E 006°16'1011.5
2014-Nov-21 11:33N 54°07' E 005°59'1211.7
2014-Nov-21 10:32N 54°05' E 005°39'1212.0
2014-Nov-21 09:33N 54°03' E 005°19'1212.4
2014-Nov-21 08:33N 54°01' E 004°58'1211.9
2014-Nov-21 07:33N 53°56' E 004°40'7712.8
2014-Nov-21 01:31N 52°55' E 003°21'6811.1
2014-Nov-20 19:22N 51°48' E 002°57'1213.4
2014-Nov-20 18:27N 51°46' E 003°17'0 0.2
2014-Nov-20 15:28N 51°46' E 003°17'0 0.0
2014-Nov-20 13:31N 51°46' E 003°18'0 0.0
2014-Nov-20 12:28N 51°46' E 003°18'0 0.0
2014-Nov-20 11:19N 51°46' E 003°18'0 0.1
2014-Nov-20 10:10N 51°46' E 003°17'0 0.0
2014-Nov-20 04:30N 51°46' E 003°17'0 0.0
2014-Nov-20 03:28N 51°46' E 003°17'0 0.0
2014-Nov-20 02:13N 51°46' E 003°18'0 0.0
2014-Nov-20 01:31N 51°46' E 003°18'0 0.0
2014-Nov-20 00:31N 51°46' E 003°18'0 0.0
2014-Nov-19 23:31N 51°46' E 003°18'0 0.0
2014-Nov-19 22:31N 51°46' E 003°18'0 0.0
2014-Nov-19 14:28N 51°46' E 003°18'0 0.0
2014-Nov-19 13:10N 51°46' E 003°18'0 0.0
2014-Nov-19 10:04N 51°46' E 003°18'0 0.1
2014-Nov-19 09:22N 51°46' E 003°18'0 0.1
2014-Nov-19 08:28N 51°46' E 003°18'0 0.0
2014-Nov-19 06:28N 51°46' E 003°18'0 0.0
2014-Nov-19 01:28N 51°46' E 003°18'0 0.0
2014-Nov-19 00:28N 51°46' E 003°18'0 0.0
2014-Nov-18 23:31N 51°46' E 003°18'0 0.0
2014-Nov-18 22:31N 51°46' E 003°18'0 0.1
2014-Nov-18 21:25N 51°46' E 003°18'0 0.1
2014-Nov-18 20:31N 51°46' E 003°18'0 0.0
2014-Nov-18 19:10N 51°46' E 003°18'0 0.0
2014-Nov-18 18:31N 51°46' E 003°18'0 0.0
2014-Nov-18 17:16N 51°46' E 003°18'0 0.0
2014-Nov-18 16:26N 51°46' E 003°17'0 0.0
2014-Nov-18 12:22N 51°46' E 003°17'0 0.0
2014-Nov-18 11:28N 51°46' E 003°18'0 0.0
2014-Nov-18 10:28N 51°46' E 003°18'0 0.0
2014-Nov-18 09:28N 51°46' E 003°17'0 0.1
2014-Nov-18 08:25N 51°46' E 003°17'0 0.0
2014-Nov-18 07:31N 51°46' E 003°18'0 0.0
2014-Nov-18 06:19N 51°46' E 003°18'0 0.0
2014-Nov-18 05:28N 51°46' E 003°18'0 0.0
2014-Nov-18 03:13N 51°46' E 003°17'4 5.8
2014-Nov-18 02:28N 51°41' E 003°18'1212.8
2014-Nov-18 01:33N 51°31' E 003°27'1313.1
2014-Nov-18 00:33N 51°23' E 003°43'3 2.5
2014-Nov-17 23:30N 51°21' E 003°46'0 0.0
2014-Nov-17 22:27N 51°21' E 003°46'0 0.0
2014-Nov-17 21:33N 51°21' E 003°46'0 0.0
2014-Nov-17 20:33N 51°21' E 003°46'0 0.0
2014-Nov-17 19:30N 51°21' E 003°46'0 0.0
2014-Nov-17 18:33N 51°21' E 003°46'0 0.0
2014-Nov-17 17:30N 51°21' E 003°46'0 0.0
2014-Nov-17 16:24N 51°21' E 003°46'0 0.0
2014-Nov-17 15:33N 51°21' E 003°46'0 0.0
2014-Nov-17 14:27N 51°21' E 003°46'0 0.0
2014-Nov-17 13:33N 51°21' E 003°46'0 0.0
2014-Nov-17 12:33N 51°21' E 003°46'0 0.0
2014-Nov-17 11:33N 51°21' E 003°46'0 0.0
2014-Nov-17 10:33N 51°21' E 003°46'0 0.0
2014-Nov-17 09:30N 51°21' E 003°46'0 0.0
2014-Nov-17 08:33N 51°21' E 003°46'0 0.0
2014-Nov-17 07:30N 51°21' E 003°46'0 0.0
2014-Nov-17 06:33N 51°21' E 003°46'0 0.0
2014-Nov-17 05:33N 51°21' E 003°46'0 0.0
2014-Nov-17 04:33N 51°21' E 003°46'0 0.0
2014-Nov-17 03:33N 51°21' E 003°46'0 0.0
2014-Nov-17 02:33N 51°21' E 003°46'0 0.0
2014-Nov-17 01:33N 51°21' E 003°46'0 0.4
2014-Nov-17 00:33N 51°21' E 003°46'7 6.9
2014-Nov-16 23:33N 51°26' E 003°38'10 9.8
2014-Nov-16 22:33N 51°24' E 003°22'1611.9
2014-Nov-16 21:14N 51°23' E 002°57'812.0
2014-Nov-16 20:32N 51°22' E 002°44'1110.2
2014-Nov-16 19:30N 51°21' E 002°27'1212.7
2014-Nov-16 18:34N 51°15' E 002°10'1312.9
2014-Nov-16 17:34N 51°09' E 001°52'1312.7
2014-Nov-16 16:33N 51°00' E 001°38'1212.4
2014-Nov-16 15:33N 50°50' E 001°27'4811.1
2014-Nov-16 11:15N 50°24' E 000°23'25111.6
2014-Nov-15 13:33N 48°47' W 005°34'  
Track history (hours):
 
Tides and Currents Weather Stations Pressure Air Temp Water Temp Dewpoint Dewpoint Depression Visibility Wind Speed Wind Dir Waves Ship Positions

Ida Theresa

Last reported at 2014-Nov-23 21:10 UTC. Time now 2014-Nov-26 20:20 UTC.
Position N 57°02' E 019°03'.

Length 121 m; draft 4.8 m.

Type: Ship. MMSI: 538090386.

Date/timePositionNaut miles runAvg speedWind from/ knotsBaromVisibWave heightAir tempDewpointWater temp
2014-Nov-23 21:10N 57°02' E 019°03'2212.7
2014-Nov-23 19:27N 56°49' E 018°31'13612.4
2014-Nov-23 08:30N 55°33' E 015°09'1212.4
2014-Nov-23 07:34N 55°27' E 014°51'1312.6
2014-Nov-23 06:33N 55°20' E 014°33'1312.6
2014-Nov-23 05:34N 55°10' E 014°20'1212.5
2014-Nov-23 04:33N 55°00' E 014°05'6612.1
2014-Nov-22 23:04N 54°35' E 012°19'612.4
2014-Nov-22 22:33N 54°29' E 012°15'1110.7
2014-Nov-22 21:33N 54°24' E 011°59'2811.2
2014-Nov-22 19:04N 54°34' E 011°14'2111.2
2014-Nov-22 17:12N 54°34' E 010°38'812.1
2014-Nov-22 16:33N 54°31' E 010°25'1110.7
2014-Nov-22 15:33N 54°23' E 010°12'3 2.5
2014-Nov-22 14:33N 54°22' E 010°09'6 6.3
2014-Nov-22 13:33N 54°21' E 009°58'8 7.1
2014-Nov-22 12:25N 54°20' E 009°44'7 7.3
2014-Nov-22 11:30N 54°15' E 009°37'8 7.7
2014-Nov-22 10:27N 54°10' E 009°26'5 5.6
2014-Nov-22 09:33N 54°06' E 009°20'7 7.3
2014-Nov-22 08:33N 53°59' E 009°17'3 3.5
2014-Nov-22 07:33N 53°57' E 009°13'2 2.1
2014-Nov-22 06:33N 53°55' E 009°11'2 2.1
2014-Nov-22 05:33N 53°54' E 009°09'2 1.6
2014-Nov-22 04:32N 53°53' E 009°06'0 0.0
2014-Nov-22 03:32N 53°53' E 009°06'0 0.2
2014-Nov-22 02:33N 53°53' E 009°06'1 0.9
2014-Nov-22 01:31N 53°53' E 009°05'0 0.1
2014-Nov-22 00:31N 53°53' E 009°05'0 0.0
2014-Nov-21 23:31N 53°53' E 009°05'0 0.0
2014-Nov-21 22:31N 53°53' E 009°05'0 0.0
2014-Nov-21 21:33N 53°53' E 009°05'8 8.5
2014-Nov-21 20:33N 53°50' E 008°52'1312.5
2014-Nov-21 19:33N 53°58' E 008°35'1312.9
2014-Nov-21 18:33N 53°60' E 008°13'1211.7
2014-Nov-21 17:33N 54°03' E 007°54'1212.3
2014-Nov-21 16:33N 54°09' E 007°35'1111.5
2014-Nov-21 15:33N 54°09' E 007°16'3511.2
2014-Nov-21 12:26N 54°08' E 006°16'1011.5
2014-Nov-21 11:33N 54°07' E 005°59'1211.7
2014-Nov-21 10:32N 54°05' E 005°39'1212.0
2014-Nov-21 09:33N 54°03' E 005°19'1212.4
2014-Nov-21 08:33N 54°01' E 004°58'1211.9
2014-Nov-21 07:33N 53°56' E 004°40'7712.8
2014-Nov-21 01:31N 52°55' E 003°21'6811.1
2014-Nov-20 19:22N 51°48' E 002°57'1213.4
2014-Nov-20 18:27N 51°46' E 003°17'0 0.2
2014-Nov-20 15:28N 51°46' E 003°17'0 0.0
2014-Nov-20 13:31N 51°46' E 003°18'0 0.0
2014-Nov-20 12:28N 51°46' E 003°18'0 0.0
2014-Nov-20 11:19N 51°46' E 003°18'0 0.1
2014-Nov-20 10:10N 51°46' E 003°17'0 0.0
2014-Nov-20 04:30N 51°46' E 003°17'0 0.0
2014-Nov-20 03:28N 51°46' E 003°17'0 0.0
2014-Nov-20 02:13N 51°46' E 003°18'0 0.0
2014-Nov-20 01:31N 51°46' E 003°18'0 0.0
2014-Nov-20 00:31N 51°46' E 003°18'0 0.0
2014-Nov-19 23:31N 51°46' E 003°18'0 0.0
2014-Nov-19 22:31N 51°46' E 003°18'0 0.0
2014-Nov-19 14:28N 51°46' E 003°18'0 0.0
2014-Nov-19 13:10N 51°46' E 003°18'0 0.0
2014-Nov-19 10:04N 51°46' E 003°18'0 0.1
2014-Nov-19 09:22N 51°46' E 003°18'0 0.1
2014-Nov-19 08:28N 51°46' E 003°18'0 0.0
2014-Nov-19 06:28N 51°46' E 003°18'0 0.0
2014-Nov-19 01:28N 51°46' E 003°18'0 0.0
2014-Nov-19 00:28N 51°46' E 003°18'0 0.0
2014-Nov-18 23:31N 51°46' E 003°18'0 0.0
2014-Nov-18 22:31N 51°46' E 003°18'0 0.1
2014-Nov-18 21:25N 51°46' E 003°18'0 0.1
2014-Nov-18 20:31N 51°46' E 003°18'0 0.0
2014-Nov-18 19:10N 51°46' E 003°18'0 0.0
2014-Nov-18 18:31N 51°46' E 003°18'0 0.0
2014-Nov-18 17:16N 51°46' E 003°18'0 0.0
2014-Nov-18 16:26N 51°46' E 003°17'0 0.0
2014-Nov-18 12:22N 51°46' E 003°17'0 0.0
2014-Nov-18 11:28N 51°46' E 003°18'0 0.0
2014-Nov-18 10:28N 51°46' E 003°18'0 0.0
2014-Nov-18 09:28N 51°46' E 003°17'0 0.1
2014-Nov-18 08:25N 51°46' E 003°17'0 0.0
2014-Nov-18 07:31N 51°46' E 003°18'0 0.0
2014-Nov-18 06:19N 51°46' E 003°18'0 0.0
2014-Nov-18 05:28N 51°46' E 003°18'0 0.0
2014-Nov-18 03:13N 51°46' E 003°17'4 5.8
2014-Nov-18 02:28N 51°41' E 003°18'1212.8
2014-Nov-18 01:33N 51°31' E 003°27'1313.1
2014-Nov-18 00:33N 51°23' E 003°43'3 2.5
2014-Nov-17 23:30N 51°21' E 003°46'0 0.0
2014-Nov-17 22:27N 51°21' E 003°46'0 0.0
2014-Nov-17 21:33N 51°21' E 003°46'0 0.0
2014-Nov-17 20:33N 51°21' E 003°46'0 0.0
2014-Nov-17 19:30N 51°21' E 003°46'0 0.0
2014-Nov-17 18:33N 51°21' E 003°46'0 0.0
2014-Nov-17 17:30N 51°21' E 003°46'0 0.0
2014-Nov-17 16:24N 51°21' E 003°46'0 0.0
2014-Nov-17 15:33N 51°21' E 003°46'0 0.0
2014-Nov-17 14:27N 51°21' E 003°46'0 0.0
2014-Nov-17 13:33N 51°21' E 003°46'0 0.0
2014-Nov-17 12:33N 51°21' E 003°46'0 0.0
2014-Nov-17 11:33N 51°21' E 003°46'0 0.0
2014-Nov-17 10:33N 51°21' E 003°46'0 0.0
2014-Nov-17 09:30N 51°21' E 003°46'0 0.0
2014-Nov-17 08:33N 51°21' E 003°46'0 0.0
2014-Nov-17 07:30N 51°21' E 003°46'0 0.0
2014-Nov-17 06:33N 51°21' E 003°46'0 0.0
2014-Nov-17 05:33N 51°21' E 003°46'0 0.0
2014-Nov-17 04:33N 51°21' E 003°46'0 0.0
2014-Nov-17 03:33N 51°21' E 003°46'0 0.0
2014-Nov-17 02:33N 51°21' E 003°46'0 0.0
2014-Nov-17 01:33N 51°21' E 003°46'0 0.4
2014-Nov-17 00:33N 51°21' E 003°46'7 6.9
2014-Nov-16 23:33N 51°26' E 003°38'10 9.8
2014-Nov-16 22:33N 51°24' E 003°22'1611.9
2014-Nov-16 21:14N 51°23' E 002°57'812.0
2014-Nov-16 20:32N 51°22' E 002°44'1110.2
2014-Nov-16 19:30N 51°21' E 002°27'1212.7
2014-Nov-16 18:34N 51°15' E 002°10'1312.9
2014-Nov-16 17:34N 51°09' E 001°52'1312.7
2014-Nov-16 16:33N 51°00' E 001°38'1212.4
2014-Nov-16 15:33N 50°50' E 001°27'4811.1
2014-Nov-16 11:15N 50°24' E 000°23'25111.6
2014-Nov-15 13:33N 48°47' W 005°34'  

Dump ship's entire track history